Time;durP1;ratioP1;P1;durP2;ratioP2;P2;SDS_P1;SDS_P2;PMS_P1;PMS_P2;Temp;Humidity;BMP_temperature;BMP_pressure;BME280_temperature;BME280_humidity;BME280_pressure;Samples;Min_cycle;Max_cycle;Signal;HPM_P1;HPM_P2
2023/09/27 00:00:41;;;;;;;4.47;2.42;;;;;;;20.02;60.18;99951.53;4953610;29;20034;-91
2023/09/27 00:03:07;;;;;;;12.05;2.25;;;;;;;20.05;60.15;99985.31;4953604;29;20031;-94
2023/09/27 00:05:34;;;;;;;6.18;2.60;;;;;;;20.20;60.56;100019.38;4934857;29;20062;-93
2023/09/27 00:08:13;;;;;;;8.77;3.13;;;;;;;19.69;59.71;99921.91;4920308;29;20063;-93
2023/09/27 00:10:50;;;;;;;5.22;2.15;;;;;;;19.60;59.47;99907.19;4915788;29;20036;-92
2023/09/27 00:13:27;;;;;;;5.50;1.88;;;;;;;19.70;59.84;99957.56;4916411;29;20066;-93
2023/09/27 00:15:57;;;;;;;3.30;1.65;;;;;;;19.45;59.85;99919.50;4921575;29;20036;-91
2023/09/27 00:18:38;;;;;;;6.97;2.45;;;;;;;19.50;60.11;99965.59;4916672;29;20043;-92
2023/09/27 00:21:09;;;;;;;5.38;2.38;;;;;;;19.35;60.14;99939.59;4917099;29;20039;-90
2023/09/27 00:23:34;;;;;;;3.53;1.85;;;;;;;19.21;60.36;99931.34;4934011;29;20083;-91
2023/09/27 00:26:36;;;;;;;12.93;2.28;;;;;;;19.22;60.44;99930.44;4916991;29;20035;-95
2023/09/27 00:29:14;;;;;;;5.32;2.72;;;;;;;18.89;61.60;99899.84;4918509;29;20154;-95
2023/09/27 00:31:40;;;;;;;3.78;1.85;;;;;;;19.16;61.70;99938.72;4916685;29;20036;-88
2023/09/27 00:34:06;;;;;;;3.85;1.85;;;;;;;19.00;61.52;99927.88;4933703;29;20426;-87
2023/09/27 00:36:31;;;;;;;3.92;2.35;;;;;;;19.29;61.46;99947.91;4934958;29;20028;-86
2023/09/27 00:38:56;;;;;;;10.55;3.00;;;;;;;19.21;61.25;99934.03;4933967;29;20115;-86
2023/09/27 00:41:22;;;;;;;5.57;2.40;;;;;;;19.12;61.77;99946.91;4933147;29;20028;-86
2023/09/27 00:43:48;;;;;;;6.20;3.30;;;;;;;19.03;61.83;99915.25;4933765;29;20035;-86
2023/09/27 00:46:18;;;;;;;10.85;3.13;;;;;;;19.52;61.80;99997.63;4933423;29;20498;-87
2023/09/27 00:48:44;;;;;;;10.25;2.33;;;;;;;19.05;62.25;99916.03;4938784;29;20066;-86
2023/09/27 00:51:11;;;;;;;3.60;2.50;;;;;;;18.92;62.34;99915.75;4934747;29;20134;-86
2023/09/27 00:53:38;;;;;;;3.45;2.05;;;;;;;18.93;62.65;99919.28;4933767;29;20031;-86
2023/09/27 00:56:04;;;;;;;5.18;2.08;;;;;;;18.92;62.52;99917.53;4950711;29;20109;-93
2023/09/27 00:58:34;;;;;;;5.18;2.22;;;;;;;19.03;62.04;99891.19;4951649;29;20043;-90
2023/09/27 01:01:00;;;;;;;16.45;3.05;;;;;;;19.21;61.84;99931.34;4952952;29;20039;-89
2023/09/27 01:03:26;;;;;;;20.60;3.92;;;;;;;19.07;61.92;99876.72;4952514;29;20047;-88
2023/09/27 01:05:52;;;;;;;17.30;2.42;;;;;;;19.21;61.89;99926.00;4952389;29;20494;-88
2023/09/27 01:08:18;;;;;;;2.63;1.58;;;;;;;19.00;62.60;99936.78;4952199;29;20035;-88
2023/09/27 01:10:45;;;;;;;9.93;3.20;;;;;;;18.94;63.27;99934.38;4950777;29;20358;-88
2023/09/27 01:13:12;;;;;;;5.70;2.70;;;;;;;18.77;63.63;99892.34;4952378;29;20052;-89
2023/09/27 01:15:37;;;;;;;3.97;1.90;;;;;;;18.74;63.72;99901.38;4933541;29;20055;-89
2023/09/27 01:18:03;;;;;;;13.18;2.70;;;;;;;18.93;63.48;99912.09;4933299;29;20066;-88
2023/09/27 01:20:32;;;;;;;8.45;2.47;;;;;;;18.87;63.20;99900.84;4934444;29;20031;-87
2023/09/27 01:23:05;;;;;;;4.63;2.95;;;;;;;19.25;63.65;99949.00;4932969;29;20134;-87
2023/09/27 01:25:33;;;;;;;4.22;1.88;;;;;;;18.97;64.45;99899.50;4944293;29;20171;-87
2023/09/27 01:28:00;;;;;;;13.13;2.60;;;;;;;19.08;64.14;99926.59;4952233;29;20048;-87
2023/09/27 01:30:32;;;;;;;5.50;2.53;;;;;;;19.40;64.52;99972.34;4952286;29;20038;-87
2023/09/27 01:33:06;;;;;;;14.45;3.15;;;;;;;18.88;64.52;99897.25;4933241;29;20528;-87
2023/09/27 01:35:32;;;;;;;10.23;4.10;;;;;;;18.74;65.01;99879.13;4950620;29;20035;-88
2023/09/27 01:37:58;;;;;;;6.80;2.10;;;;;;;18.76;65.00;99903.97;4952047;29;20035;-88
2023/09/27 01:40:30;;;;;;;6.05;3.25;;;;;;;18.73;64.85;99904.13;4952438;29;20102;-86
2023/09/27 01:43:00;;;;;;;7.50;3.13;;;;;;;18.72;64.42;99865.84;4951698;29;20502;-87
2023/09/27 01:45:27;;;;;;;7.68;2.72;;;;;;;18.75;64.81;99895.09;4940589;29;20471;-88
2023/09/27 01:47:53;;;;;;;5.00;2.90;;;;;;;18.88;64.53;99907.94;4932537;29;20498;-86
2023/09/27 01:50:23;;;;;;;5.13;2.97;;;;;;;19.05;63.91;99913.34;4951558;29;20074;-88
2023/09/27 01:52:49;;;;;;;3.67;2.25;;;;;;;18.95;64.26;99928.06;4952950;28;20544;-87
2023/09/27 01:55:15;;;;;;;5.55;3.00;;;;;;;18.80;64.11;99908.25;4955945;29;20148;-87
2023/09/27 01:57:40;;;;;;;5.55;3.20;;;;;;;19.32;64.34;99986.09;4954112;29;20394;-88
2023/09/27 02:00:11;;;;;;;7.25;2.78;;;;;;;18.93;64.36;99904.09;4955820;29;20402;-87
2023/09/27 02:02:39;;;;;;;15.15;4.07;;;;;;;18.96;64.22;99917.31;4956106;29;20031;-87
2023/09/27 02:05:05;;;;;;;10.32;3.63;;;;;;;18.74;64.29;99890.69;4955757;29;20040;-86
2023/09/27 02:07:31;;;;;;;7.55;2.42;;;;;;;18.73;64.59;99894.28;4954002;29;20063;-87
2023/09/27 02:09:56;;;;;;;4.55;3.35;;;;;;;18.74;65.14;99922.75;4955716;29;20085;-87
2023/09/27 02:12:22;;;;;;;7.88;3.53;;;;;;;18.48;65.12;99865.16;4955685;29;20031;-87
2023/09/27 02:14:47;;;;;;;5.63;2.97;;;;;;;18.90;64.91;99924.75;4955554;29;20035;-87
2023/09/27 02:17:13;;;;;;;11.35;3.17;;;;;;;18.94;64.62;99904.97;4953892;29;20031;-86
2023/09/27 02:19:39;;;;;;;9.80;2.65;;;;;;;18.89;65.23;99913.22;4955808;29;20040;-87
2023/09/27 02:22:06;;;;;;;5.15;3.60;;;;;;;19.13;65.31;99961.97;4955592;29;20027;-87
2023/09/27 02:24:31;;;;;;;5.50;2.78;;;;;;;18.56;65.61;99902.19;4953474;29;20035;-88
2023/09/27 02:26:57;;;;;;;6.93;2.38;;;;;;;18.56;65.31;99900.38;4938174;29;20513;-87
2023/09/27 02:29:23;;;;;;;6.85;3.80;;;;;;;18.82;65.57;99962.47;4955665;29;20035;-88
2023/09/27 02:31:48;;;;;;;7.88;3.13;;;;;;;18.54;66.10;99930.78;4937896;29;20042;-87
2023/09/27 02:34:14;;;;;;;5.70;2.63;;;;;;;18.11;66.23;99889.94;4953600;29;20043;-86
2023/09/27 02:36:41;;;;;;;9.70;3.47;;;;;;;18.05;66.01;99864.38;4954974;29;20035;-87
2023/09/27 02:39:07;;;;;;;13.40;2.90;;;;;;;18.11;65.98;99905.97;4955435;29;20058;-87
2023/09/27 02:41:33;;;;;;;3.38;1.90;;;;;;;18.45;65.76;99963.25;4955075;29;20114;-86
2023/09/27 02:43:59;;;;;;;2.22;2.03;;;;;;;18.02;65.42;99892.06;4953706;29;20126;-87
2023/09/27 02:46:24;;;;;;;2.08;1.50;;;;;;;17.99;65.40;99876.16;4953400;29;20502;-87
2023/09/27 02:48:49;;;;;;;2.55;1.80;;;;;;;17.83;66.35;99929.28;4954800;29;20031;-86
2023/09/27 02:51:18;;;;;;;24.83;3.13;;;;;;;17.47;67.39;99912.97;4955559;29;20094;-88
2023/09/27 02:53:44;;;;;;;2.30;1.42;;;;;;;17.45;68.14;99931.69;4937635;29;20060;-87
2023/09/27 02:56:11;;;;;;;2.50;1.58;;;;;;;17.44;67.74;99900.66;4936982;29;20540;-87
2023/09/27 02:58:40;;;;;;;3.70;2.58;;;;;;;17.61;67.33;99921.31;4935528;29;20039;-87
2023/09/27 03:01:05;;;;;;;11.93;2.50;;;;;;;17.57;67.32;99911.69;4942359;29;20058;-86
2023/09/27 03:03:31;;;;;;;6.32;3.10;;;;;;;17.46;67.99;99904.13;4954484;29;20167;-86
2023/09/27 03:05:58;;;;;;;4.80;2.25;;;;;;;17.60;68.43;99938.22;4953252;28;20102;-87
2023/09/27 03:08:24;;;;;;;4.35;1.63;;;;;;;18.03;67.68;99984.53;4946347;29;20039;-85
2023/09/27 03:10:51;;;;;;;3.92;1.48;;;;;;;17.75;67.24;99941.19;4953033;29;20494;-87
2023/09/27 03:13:18;;;;;;;21.35;2.92;;;;;;;17.68;68.18;99952.13;4954405;29;20038;-86
2023/09/27 03:15:46;;;;;;;4.03;2.72;;;;;;;17.67;67.76;99929.06;4954606;29;20411;-87
2023/09/27 03:18:12;;;;;;;4.20;2.03;;;;;;;17.81;67.61;99938.28;4954886;29;20031;-86
2023/09/27 03:20:37;;;;;;;3.95;1.88;;;;;;;17.76;67.99;99953.63;4954131;29;20067;-86
2023/09/27 03:23:03;;;;;;;7.18;2.53;;;;;;;17.64;68.13;99936.28;4950698;29;20038;-85
2023/09/27 03:25:28;;;;;;;4.43;3.63;;;;;;;17.45;67.89;99917.50;4953201;29;20039;-85
2023/09/27 03:27:54;;;;;;;3.13;2.15;;;;;;;17.53;68.05;99937.63;4953818;29;20437;-85
2023/09/27 03:30:20;;;;;;;2.83;1.80;;;;;;;17.68;68.41;99993.94;4954166;29;20031;-86
2023/09/27 03:32:46;;;;;;;4.40;2.20;;;;;;;17.88;68.04;100011.81;4949811;29;20483;-85
2023/09/27 03:35:12;;;;;;;4.40;3.17;;;;;;;17.58;67.14;99945.44;4934788;29;20047;-85
2023/09/27 03:37:39;;;;;;;5.38;1.33;;;;;;;17.61;67.66;99968.44;4934854;29;20040;-84
2023/09/27 03:40:15;;;;;;;4.43;2.13;;;;;;;17.61;67.59;99971.09;4934863;29;20541;-84
2023/09/27 03:42:45;;;;;;;5.18;3.72;;;;;;;17.54;67.59;99933.16;4918968;29;20079;-86
2023/09/27 03:45:11;;;;;;;6.68;3.03;;;;;;;17.64;67.71;99958.53;4934800;29;20043;-84
2023/09/27 03:47:37;;;;;;;3.17;2.63;;;;;;;17.60;68.43;99974.72;4934819;29;20110;-83
2023/09/27 03:50:03;;;;;;;3.33;2.40;;;;;;;17.35;68.22;99957.00;4934736;29;20459;-87
2023/09/27 03:52:29;;;;;;;2.35;1.98;;;;;;;17.20;68.32;99958.47;4917615;29;20103;-87
2023/09/27 03:54:55;;;;;;;2.70;1.27;;;;;;;17.57;68.15;99996.16;4935838;29;20035;-88
2023/09/27 03:57:20;;;;;;;3.00;2.42;;;;;;;17.67;67.49;99985.09;4934734;29;20038;-85
2023/09/27 03:59:46;;;;;;;5.50;2.20;;;;;;;17.30;67.69;99946.53;4917958;29;20038;-86
2023/09/27 04:02:11;;;;;;;6.18;3.05;;;;;;;17.17;68.35;99962.09;4947128;29;20114;-85
2023/09/27 04:04:37;;;;;;;3.83;2.30;;;;;;;17.41;68.56;100001.22;4946736;29;20054;-86
2023/09/27 04:07:03;;;;;;;6.70;2.55;;;;;;;17.15;68.39;99958.63;4934326;29;20086;-84
2023/09/27 04:09:29;;;;;;;3.45;2.03;;;;;;;17.06;67.33;99944.78;4934211;29;20447;-84
2023/09/27 04:11:55;;;;;;;7.63;2.83;;;;;;;17.25;67.02;99943.13;4922039;29;20034;-85
2023/09/27 04:14:21;;;;;;;2.70;1.67;;;;;;;17.43;67.46;99983.38;4934357;29;20059;-85
2023/09/27 04:16:46;;;;;;;2.42;1.10;;;;;;;17.59;67.58;100004.97;4943314;28;20059;-87
2023/09/27 04:19:13;;;;;;;5.30;2.35;;;;;;;17.49;67.67;99989.31;4940366;29;20062;-86
2023/09/27 04:21:38;;;;;;;5.15;3.45;;;;;;;17.53;67.92;99996.28;4947063;29;20038;-86
2023/09/27 04:24:04;;;;;;;2.60;1.90;;;;;;;17.42;68.30;99986.97;4940515;29;20020;-86
2023/09/27 04:26:30;;;;;;;10.23;3.50;;;;;;;17.65;68.20;99994.91;4943050;29;20035;-87
2023/09/27 04:28:55;;;;;;;3.00;1.92;;;;;;;17.49;68.78;100000.00;4953092;29;20034;-86
2023/09/27 04:31:21;;;;;;;4.03;3.33;;;;;;;17.50;68.00;99968.84;4948589;29;20081;-86
2023/09/27 04:33:47;;;;;;;5.00;2.28;;;;;;;17.72;67.76;99990.22;4952283;29;20403;-85
2023/09/27 04:36:17;;;;;;;7.97;4.55;;;;;;;17.92;67.47;99986.78;4946819;29;20035;-85
2023/09/27 04:38:46;;;;;;;2.30;1.77;;;;;;;17.98;67.35;99981.22;4934677;29;20127;-83
2023/09/27 04:41:16;;;;;;;4.65;2.00;;;;;;;17.72;67.78;99951.06;4933809;29;20042;-82
2023/09/27 04:43:42;;;;;;;7.13;4.07;;;;;;;18.24;67.85;100033.53;4951053;29;20035;-83
2023/09/27 04:46:11;;;;;;;4.35;1.73;;;;;;;18.17;68.59;100009.81;4952488;29;20035;-87
2023/09/27 04:48:37;;;;;;;1.75;1.60;;;;;;;18.07;68.52;99972.81;4951768;29;20043;-85
2023/09/27 04:51:03;;;;;;;5.10;2.30;;;;;;;18.17;69.30;100015.16;4950126;29;20513;-85
2023/09/27 04:53:30;;;;;;;5.78;1.23;;;;;;;17.99;69.59;99992.75;4935138;29;20418;-85
2023/09/27 04:55:56;;;;;;;2.80;1.95;;;;;;;18.23;69.72;100002.41;4933554;29;20046;-85
2023/09/27 04:58:22;;;;;;;5.35;2.95;;;;;;;18.30;68.97;99992.31;4939495;29;20034;-87
2023/09/27 05:00:47;;;;;;;3.78;2.65;;;;;;;18.19;68.77;99986.56;4952714;29;20406;-86
2023/09/27 05:03:13;;;;;;;2.47;1.63;;;;;;;18.56;68.83;100025.94;4945398;29;20046;-91
2023/09/27 05:05:38;;;;;;;5.25;3.28;;;;;;;18.64;68.63;100020.25;4935143;29;20450;-88
2023/09/27 05:08:04;;;;;;;4.32;2.10;;;;;;;18.51;69.20;100017.25;4937259;29;20031;-85
2023/09/27 05:10:30;;;;;;;4.15;2.60;;;;;;;18.79;68.77;100022.28;4952117;29;20087;-89
2023/09/27 05:12:56;;;;;;;4.68;2.35;;;;;;;18.78;68.44;100008.97;4934860;29;20130;-84
2023/09/27 05:15:21;;;;;;;3.67;2.28;;;;;;;18.87;69.38;100003.25;4940695;29;20058;-83
2023/09/27 05:17:47;;;;;;;3.55;2.17;;;;;;;19.09;68.76;99996.94;4930891;29;20032;-84
2023/09/27 05:20:13;;;;;;;9.75;4.97;;;;;;;19.56;67.86;100052.75;4933165;29;20114;-85
2023/09/27 05:22:39;;;;;;;3.13;2.22;;;;;;;19.43;66.85;100016.78;4932633;29;20070;-85
2023/09/27 05:25:07;;;;;;;2.85;2.30;;;;;;;19.56;66.96;100038.50;4932772;29;20036;-85
2023/09/27 05:27:34;;;;;;;3.80;2.33;;;;;;;19.66;66.71;100035.31;4932429;29;20031;-85
2023/09/27 05:29:59;;;;;;;3.60;2.45;;;;;;;19.66;66.54;100024.63;4932950;29;20114;-85
2023/09/27 05:32:25;;;;;;;11.30;3.95;;;;;;;19.64;66.10;100022.94;4930280;29;20122;-86
2023/09/27 05:34:50;;;;;;;3.20;2.90;;;;;;;19.76;65.86;100027.72;4937750;29;20039;-85
2023/09/27 05:37:16;;;;;;;6.20;4.50;;;;;;;19.79;65.62;100024.06;4936097;29;20031;-85
2023/09/27 05:39:42;;;;;;;11.88;3.35;;;;;;;19.87;64.87;100034.41;4933799;29;20027;-85
2023/09/27 05:42:07;;;;;;;3.97;1.92;;;;;;;20.03;64.68;100040.75;4939777;29;20039;-85
2023/09/27 05:44:33;;;;;;;6.47;3.20;;;;;;;19.87;64.91;100031.72;4942093;29;20152;-86
2023/09/27 05:46:58;;;;;;;13.05;3.60;;;;;;;20.08;64.38;100036.03;4943398;29;20494;-85
2023/09/27 05:49:25;;;;;;;7.35;3.35;;;;;;;20.32;64.19;100078.63;4945366;29;20574;-86
2023/09/27 05:51:52;;;;;;;4.13;2.10;;;;;;;20.45;63.77;100081.56;4940421;29;20098;-86
2023/09/27 05:54:19;;;;;;;3.33;2.33;;;;;;;20.23;63.99;100049.63;4938943;29;20038;-88
2023/09/27 05:56:50;;;;;;;4.35;2.28;;;;;;;20.07;63.84;100036.97;4935277;29;20047;-88
2023/09/27 05:59:16;;;;;;;3.30;3.00;;;;;;;20.24;63.39;100011.19;4932432;29;20410;-87
2023/09/27 06:01:41;;;;;;;4.25;3.10;;;;;;;20.28;62.95;100024.34;4932206;29;20028;-89
2023/09/27 06:04:07;;;;;;;4.95;3.65;;;;;;;20.31;63.06;100045.63;4932362;29;20043;-87
2023/09/27 06:06:34;;;;;;;4.85;1.95;;;;;;;20.42;62.51;100031.69;4931576;29;20032;-87
2023/09/27 06:08:59;;;;;;;4.13;2.42;;;;;;;20.46;62.32;100017.19;4931840;29;20046;-89
2023/09/27 06:11:25;;;;;;;4.72;2.22;;;;;;;20.31;62.53;100008.13;4932214;29;20027;-89
2023/09/27 06:13:51;;;;;;;4.72;2.78;;;;;;;20.41;63.29;100055.88;4945302;29;20050;-93
2023/09/27 06:16:19;;;;;;;2.95;2.17;;;;;;;20.67;62.82;100017.06;4933465;29;20122;-90
2023/09/27 06:18:45;;;;;;;9.23;3.60;;;;;;;21.52;61.44;100085.91;4931890;29;20035;-90
2023/09/27 06:21:11;;;;;;;2.53;1.95;;;;;;;21.93;60.22;100057.69;4931584;29;20048;-90
2023/09/27 06:23:37;;;;;;;4.07;2.53;;;;;;;21.95;58.03;100024.44;4932901;29;20036;-92
2023/09/27 06:26:02;;;;;;;2.38;1.73;;;;;;;22.13;57.17;100009.06;4932515;29;20036;-92
2023/09/27 06:28:29;;;;;;;5.43;2.63;;;;;;;22.11;56.63;100023.56;4932555;29;20463;-94
2023/09/27 06:30:55;;;;;;;3.42;2.30;;;;;;;22.30;56.32;100020.66;4927551;29;20028;-90
2023/09/27 06:33:20;;;;;;;4.15;2.20;;;;;;;22.17;56.42;100040.19;4932648;29;20201;-92
2023/09/27 06:35:46;;;;;;;10.30;2.85;;;;;;;22.28;56.23;100036.88;4932853;29;20145;-88
2023/09/27 06:38:13;;;;;;;2.15;1.73;;;;;;;22.31;55.83;100012.53;4933416;29;20067;-89
2023/09/27 06:40:39;;;;;;;5.50;2.35;;;;;;;22.79;55.49;100052.72;4917003;29;20457;-91
2023/09/27 06:43:05;;;;;;;3.60;2.47;;;;;;;23.33;53.93;100076.38;4918364;29;20036;-89
2023/09/27 06:45:30;;;;;;;3.42;2.30;;;;;;;23.31;52.71;100019.09;4935885;29;20034;-87
2023/09/27 06:47:56;;;;;;;6.78;2.03;;;;;;;23.38;52.73;100033.88;4935171;29;20403;-89
2023/09/27 06:50:22;;;;;;;8.00;3.00;;;;;;;23.67;52.58;100033.88;4935118;29;20044;-92
2023/09/27 06:52:48;;;;;;;7.53;1.67;;;;;;;23.66;53.41;100021.34;4923357;29;20047;-90
2023/09/27 06:55:16;;;;;;;2.83;1.85;;;;;;;24.09;51.20;100044.69;4935986;29;20031;-88
2023/09/27 06:57:48;;;;;;;6.93;2.33;;;;;;;24.15;51.73;100017.31;4935214;29;20044;-89
2023/09/27 07:00:24;;;;;;;3.70;1.95;;;;;;;24.73;50.21;100017.94;4936000;29;20087;-91
2023/09/27 07:02:50;;;;;;;21.48;3.25;;;;;;;24.83;48.82;100023.56;4918700;29;20123;-92
2023/09/27 07:05:17;;;;;;;1.45;0.90;;;;;;;24.57;48.64;100018.13;4934879;29;21416;-91
2023/09/27 07:07:43;;;;;;;2.83;1.75;;;;;;;24.63;48.86;100028.47;4935010;29;20043;-92
2023/09/27 07:10:09;;;;;;;8.75;1.73;;;;;;;24.65;47.65;100026.56;4935461;29;20043;-91
2023/09/27 07:12:35;;;;;;;5.35;1.65;;;;;;;24.80;48.55;100043.50;4923958;29;20426;-91
2023/09/27 07:15:04;;;;;;;5.00;1.67;;;;;;;25.16;48.11;100027.56;4954497;29;20027;-90
2023/09/27 07:17:31;;;;;;;1.50;0.98;;;;;;;25.53;47.20;100016.84;4939527;29;20039;-90
2023/09/27 07:19:56;;;;;;;1.77;1.13;;;;;;;25.94;44.93;100090.47;4934485;29;21880;-93
2023/09/27 07:22:25;;;;;;;2.03;1.42;;;;;;;25.72;44.91;100046.13;4917513;29;20059;-89
2023/09/27 07:24:50;;;;;;;6.97;1.38;;;;;;;25.58;45.63;100027.31;4931452;29;20434;-91
2023/09/27 07:27:17;;;;;;;6.47;2.35;;;;;;;25.95;44.27;100036.31;4934666;29;20147;-93
2023/09/27 07:29:43;;;;;;;5.40;1.38;;;;;;;25.96;44.00;100011.00;4935396;29;20094;-93
2023/09/27 07:32:08;;;;;;;3.40;1.20;;;;;;;26.08;43.94;100036.28;4934742;29;20036;-93
2023/09/27 07:34:34;;;;;;;1.60;1.40;;;;;;;26.28;43.60;100018.59;4917044;29;20040;-94
2023/09/27 07:36:59;;;;;;;2.20;1.48;;;;;;;26.20;43.89;100011.06;4934472;29;20123;-92
2023/09/27 07:39:25;;;;;;;7.57;2.30;;;;;;;26.67;42.38;100067.09;4928125;29;20066;-93
2023/09/27 07:41:52;;;;;;;2.65;1.55;;;;;;;26.36;42.54;100020.72;4919337;29;20105;-91
2023/09/27 07:44:18;;;;;;;1.95;1.42;;;;;;;26.33;41.22;100027.19;4918160;29;20053;-91
2023/09/27 07:46:44;;;;;;;2.97;1.90;;;;;;;26.74;40.58;100031.31;4917953;29;20047;-94
2023/09/27 07:49:10;;;;;;;4.13;1.17;;;;;;;26.43;41.69;100038.16;4917819;29;20406;-93
2023/09/27 07:51:36;;;;;;;7.15;2.15;;;;;;;26.47;42.77;100018.03;4917179;29;20039;-91
2023/09/27 07:54:04;;;;;;;8.35;1.55;;;;;;;26.77;42.25;100035.59;4934260;29;20067;-94
2023/09/27 07:56:36;;;;;;;11.45;1.73;;;;;;;26.45;41.20;100012.75;4917544;29;20023;-92
2023/09/27 07:59:03;;;;;;;3.15;1.77;;;;;;;26.62;40.60;100043.91;4934684;29;20407;-91
2023/09/27 08:01:29;;;;;;;1.40;0.93;;;;;;;26.93;41.11;100062.38;4917266;29;20424;-92
2023/09/27 08:04:05;;;;;;;7.68;1.50;;;;;;;27.02;39.89;100031.88;4932067;29;20039;-91
2023/09/27 08:06:31;;;;;;;4.20;2.22;;;;;;;27.42;38.47;99990.81;4933116;29;20027;-92
2023/09/27 08:09:00;;;;;;;9.05;1.05;;;;;;;27.36;37.22;99999.44;4917514;29;20542;-91
2023/09/27 08:11:29;;;;;;;8.35;1.77;;;;;;;27.52;37.75;100054.06;4934444;29;20042;-91
2023/09/27 08:13:54;;;;;;;3.05;2.22;;;;;;;27.48;37.86;100020.13;4934575;29;20023;-91
2023/09/27 08:16:20;;;;;;;1.75;1.45;;;;;;;26.96;39.16;100045.88;4917043;29;20039;-92
2023/09/27 08:18:46;;;;;;;2.10;1.35;;;;;;;27.02;39.34;100045.41;4934701;29;20031;-91
2023/09/27 08:21:11;;;;;;;7.45;1.38;;;;;;;26.72;40.12;100017.03;4916667;29;20426;-89
2023/09/27 08:23:37;;;;;;;5.15;2.13;;;;;;;26.60;40.76;100078.34;4917168;29;20126;-92
2023/09/27 08:26:02;;;;;;;2.60;1.63;;;;;;;26.60;40.83;100075.63;4933021;29;20126;-91
2023/09/27 08:28:29;;;;;;;6.22;1.58;;;;;;;26.47;42.86;100063.16;4916768;29;20036;-91
2023/09/27 08:30:59;;;;;;;4.20;1.65;;;;;;;26.53;43.67;100041.91;4934128;29;20114;-90
2023/09/27 08:33:24;;;;;;;9.27;2.25;;;;;;;26.96;41.11;100062.13;4944203;29;20108;-90
2023/09/27 08:35:52;;;;;;;3.63;1.63;;;;;;;26.85;41.35;100029.59;4933328;29;20199;-91
2023/09/27 08:38:17;;;;;;;3.17;1.50;;;;;;;26.41;39.76;100040.13;4933776;29;20027;-94
2023/09/27 08:40:43;;;;;;;8.35;1.73;;;;;;;26.75;39.70;100040.28;4918437;29;20035;-91
2023/09/27 08:43:10;;;;;;;2.45;1.77;;;;;;;26.63;39.24;100034.81;4935684;29;20126;-89
2023/09/27 08:45:38;;;;;;;3.45;1.77;;;;;;;26.23;39.52;100015.38;4918014;29;20442;-89
2023/09/27 08:48:05;;;;;;;3.92;1.58;;;;;;;26.05;40.40;100029.28;4916617;29;20027;-92
2023/09/27 08:50:31;;;;;;;3.50;2.40;;;;;;;26.25;41.21;99997.19;4936517;29;20046;-95
2023/09/27 08:52:59;;;;;;;5.82;3.60;;;;;;;27.16;47.09;100084.94;4942208;29;20036;-92
2023/09/27 08:55:25;;;;;;;3.15;1.90;;;;;;;26.74;40.65;100020.50;4934308;29;20031;-92
2023/09/27 08:57:52;;;;;;;5.57;1.70;;;;;;;26.86;39.32;100029.47;4934231;29;20127;-90
2023/09/27 09:00:26;;;;;;;2.80;1.85;;;;;;;26.71;38.83;100030.69;4933923;29;20134;-90
2023/09/27 09:03:18;;;;;;;6.20;1.77;;;;;;;26.90;38.31;100028.28;4934662;29;20427;-96
2023/09/27 09:05:59;;;;;;;3.58;1.88;;;;;;;26.75;37.92;100002.41;4917191;29;20122;-94
2023/09/27 09:08:28;;;;;;;6.10;2.03;;;;;;;26.86;37.21;100001.56;4884606;29;20090;-91
2023/09/27 09:10:55;;;;;;;3.22;1.42;;;;;;;26.89;37.08;99993.22;4899125;29;20574;-94
2023/09/27 09:13:22;;;;;;;6.38;1.80;;;;;;;26.91;38.10;100005.66;4927851;29;20031;-96
2023/09/27 09:15:51;;;;;;;4.15;2.00;;;;;;;27.14;37.28;100006.53;4934617;29;20494;-95
2023/09/27 09:18:32;;;;;;;8.57;2.00;;;;;;;27.28;37.37;100039.75;4929277;29;20050;-96
2023/09/27 09:21:08;;;;;;;1.20;1.10;;;;;;;27.56;36.91;100024.03;4926021;29;20032;-96
2023/09/27 09:23:39;;;;;;;6.85;1.27;;;;;;;27.28;36.91;100012.69;4929536;29;20039;-90
2023/09/27 09:26:10;;;;;;;2.38;1.30;;;;;;;27.92;36.13;100039.16;4934862;29;20054;-91
2023/09/27 09:28:57;;;;;;;12.52;2.03;;;;;;;28.32;35.82;100064.84;4917815;29;20126;-91
2023/09/27 09:31:23;;;;;;;4.22;1.95;;;;;;;28.11;36.53;100064.78;4934056;29;20032;-94
2023/09/27 09:34:12;;;;;;;3.50;1.85;;;;;;;27.86;35.51;100007.97;4933098;29;20131;-93
2023/09/27 09:36:38;;;;;;;8.48;1.48;;;;;;;27.84;35.92;100009.97;4821600;29;20072;-88
2023/09/27 09:39:14;;;;;;;2.55;1.17;;;;;;;27.89;34.91;100009.59;4837375;29;20054;-89
2023/09/27 09:42:20;;;;;;;7.60;1.40;;;;;;;28.53;35.49;100054.91;4822947;29;20042;-93
2023/09/27 09:45:12;;;;;;;1.98;1.30;;;;;;;27.66;35.33;99984.38;4803377;29;20122;-94
2023/09/27 09:47:46;;;;;;;2.53;1.50;;;;;;;27.86;37.37;100020.69;4803235;29;20497;-93
2023/09/27 09:50:19;;;;;;;6.60;1.77;;;;;;;27.66;35.94;99987.94;4803240;29;20441;-91
2023/09/27 09:52:58;;;;;;;2.83;1.52;;;;;;;27.87;35.48;99987.19;4818958;29;20094;-90
2023/09/27 09:55:33;;;;;;;5.82;1.70;;;;;;;27.64;37.26;100008.03;4819610;29;20512;-92
2023/09/27 09:58:30;;;;;;;6.43;1.95;;;;;;;27.99;35.85;100028.69;4818454;29;20038;-92
2023/09/27 10:07:46;;;;;;;3.17;1.70;;;;;;;27.93;34.75;99972.22;4751686;30;20139;-96
2023/09/27 10:10:15;;;;;;;2.97;1.85;;;;;;;27.77;36.49;99981.63;4735771;30;20048;-93
2023/09/27 10:12:44;;;;;;;11.40;2.22;;;;;;;28.01;36.49;100016.72;4756948;29;20048;-96
2023/09/27 10:15:11;;;;;;;4.25;2.28;;;;;;;28.15;35.01;99979.47;4799568;29;20046;-95
2023/09/27 10:17:38;;;;;;;2.80;1.20;;;;;;;27.85;34.67;99975.56;4824857;29;20053;-92
2023/09/27 10:20:14;;;;;;;6.88;1.83;;;;;;;27.78;35.28;99952.72;4823918;29;20053;-94
2023/09/27 10:22:48;;;;;;;4.88;1.70;;;;;;;28.13;34.68;99966.06;4823920;29;20144;-93
2023/09/27 10:25:23;;;;;;;6.57;1.77;;;;;;;28.52;34.37;100019.75;4823588;29;20049;-96
2023/09/27 10:28:11;;;;;;;3.30;1.87;;;;;;;28.57;34.19;100002.06;4825184;29;20098;-93
2023/09/27 10:30:48;;;;;;;3.50;1.63;;;;;;;28.72;34.12;99999.94;4824867;29;20168;-95
2023/09/27 10:33:16;;;;;;;5.82;2.33;;;;;;;28.63;33.99;99970.88;4842010;29;21163;-96
2023/09/27 10:35:48;;;;;;;2.80;2.08;;;;;;;28.43;33.32;99921.00;4847387;29;20083;-95
2023/09/27 10:38:15;;;;;;;6.72;1.92;;;;;;;28.41;33.49;99901.31;4846482;29;20025;-91
2023/09/27 10:40:46;;;;;;;2.17;1.27;;;;;;;28.78;33.29;99927.97;4887482;29;20051;-94
2023/09/27 10:43:34;;;;;;;4.10;2.53;;;;;;;29.18;33.06;99954.31;4922556;29;20105;-93
2023/09/27 10:46:05;;;;;;;1.73;1.10;;;;;;;29.23;32.82;99937.66;4918012;29;20653;-96
2023/09/27 10:48:36;;;;;;;8.35;1.98;;;;;;;29.39;32.02;99953.41;4920253;29;20031;-91
2023/09/27 10:51:02;;;;;;;1.35;1.10;;;;;;;29.11;32.19;99929.53;4935740;29;20055;-95
2023/09/27 10:53:28;;;;;;;3.00;1.08;;;;;;;29.15;32.46;99915.69;4935950;29;20036;-92
2023/09/27 10:55:59;;;;;;;5.13;2.03;;;;;;;28.90;32.43;99915.16;4940050;29;20166;-93
2023/09/27 10:58:24;;;;;;;3.22;0.75;;;;;;;28.87;32.66;99874.72;4936006;29;20035;-90
2023/09/27 11:01:00;;;;;;;2.38;1.25;;;;;;;28.99;32.78;99897.22;4918908;29;20036;-89
2023/09/27 11:03:29;;;;;;;1.65;1.13;;;;;;;28.59;33.70;99863.59;4918707;29;20430;-88
2023/09/27 11:06:15;;;;;;;4.03;1.65;;;;;;;28.50;33.41;99899.63;4935451;29;20031;-88
2023/09/27 11:08:44;;;;;;;13.63;2.70;;;;;;;28.40;34.23;99914.00;4935111;29;20118;-89
2023/09/27 11:11:14;;;;;;;3.38;1.75;;;;;;;28.65;33.31;99913.75;4935335;29;20425;-90
2023/09/27 11:13:47;;;;;;;4.05;1.20;;;;;;;28.83;32.46;99892.28;4918202;29;20063;-93
2023/09/27 11:16:49;;;;;;;1.73;1.13;;;;;;;28.75;32.62;99880.25;4935034;29;20075;-94
2023/09/27 11:19:26;;;;;;;8.32;3.60;;;;;;;29.21;33.39;99901.59;4925343;29;20039;-91
2023/09/27 11:21:54;;;;;;;3.92;1.27;;;;;;;29.29;32.02;99918.09;4954115;29;20035;-92
2023/09/27 11:24:20;;;;;;;8.68;1.75;;;;;;;29.29;33.20;99910.78;4936641;29;20114;-96
2023/09/27 11:26:53;;;;;;;2.78;1.48;;;;;;;29.36;32.81;99872.19;4942990;28;20126;-91
2023/09/27 11:29:25;;;;;;;5.35;1.17;;;;;;;29.44;34.90;99905.81;4935023;29;20055;-95
2023/09/27 11:31:56;;;;;;;3.17;1.75;;;;;;;29.33;32.82;99848.88;4945672;29;20070;-95
2023/09/27 11:34:38;;;;;;;2.33;1.40;;;;;;;29.53;34.52;99862.50;4937142;29;20103;-95
2023/09/27 11:37:05;;;;;;;1.17;0.73;;;;;;;29.42;32.15;99847.19;4940383;29;20035;-94
2023/09/27 11:39:49;;;;;;;3.13;1.38;;;;;;;29.64;31.13;99876.81;4932079;29;20023;-95
2023/09/27 11:42:23;;;;;;;1.80;1.13;;;;;;;29.43;32.26;99874.22;4915373;29;20040;-95